sensor_id;sensor_type;location;lat;lon;timestamp;P1;durP1;ratioP1;P2;durP2;ratioP2
37411;SDS011;23278;52.110;6.050;2023-07-13T00:01:30;5.43;;;1.00;;
37411;SDS011;23278;52.110;6.050;2023-07-13T00:03:56;4.35;;;1.00;;
37411;SDS011;23278;52.110;6.050;2023-07-13T00:06:23;6.88;;;1.00;;
37411;SDS011;23278;52.110;6.050;2023-07-13T00:08:49;4.75;;;1.23;;
37411;SDS011;23278;52.110;6.050;2023-07-13T00:11:15;5.53;;;1.42;;
37411;SDS011;23278;52.110;6.050;2023-07-13T00:13:42;6.68;;;2.05;;
37411;SDS011;23278;52.110;6.050;2023-07-13T00:16:09;5.10;;;1.02;;
37411;SDS011;23278;52.110;6.050;2023-07-13T00:18:36;4.90;;;1.38;;
37411;SDS011;23278;52.110;6.050;2023-07-13T00:21:03;3.75;;;1.10;;
37411;SDS011;23278;52.110;6.050;2023-07-13T00:23:33;6.28;;;1.70;;
37411;SDS011;23278;52.110;6.050;2023-07-13T00:26:04;7.18;;;1.90;;
37411;SDS011;23278;52.110;6.050;2023-07-13T00:28:31;3.33;;;1.02;;
37411;SDS011;23278;52.110;6.050;2023-07-13T00:30:58;4.15;;;1.30;;
37411;SDS011;23278;52.110;6.050;2023-07-13T00:33:24;5.82;;;2.25;;
37411;SDS011;23278;52.110;6.050;2023-07-13T00:35:50;5.72;;;1.55;;
37411;SDS011;23278;52.110;6.050;2023-07-13T00:38:16;5.05;;;1.23;;
37411;SDS011;23278;52.110;6.050;2023-07-13T00:40:42;4.72;;;2.35;;
37411;SDS011;23278;52.110;6.050;2023-07-13T00:43:16;5.25;;;1.67;;
37411;SDS011;23278;52.110;6.050;2023-07-13T00:48:10;10.80;;;1.65;;
37411;SDS011;23278;52.110;6.050;2023-07-13T00:50:39;5.88;;;2.50;;
37411;SDS011;23278;52.110;6.050;2023-07-13T00:53:06;5.47;;;1.73;;
37411;SDS011;23278;52.110;6.050;2023-07-13T00:55:34;3.65;;;1.30;;
37411;SDS011;23278;52.110;6.050;2023-07-13T00:58:01;4.10;;;1.45;;
37411;SDS011;23278;52.110;6.050;2023-07-13T01:00:27;5.47;;;0.98;;
37411;SDS011;23278;52.110;6.050;2023-07-13T01:02:55;7.75;;;1.27;;
37411;SDS011;23278;52.110;6.050;2023-07-13T01:05:23;6.68;;;1.10;;
37411;SDS011;23278;52.110;6.050;2023-07-13T01:07:50;5.28;;;1.20;;
37411;SDS011;23278;52.110;6.050;2023-07-13T01:10:17;6.03;;;1.52;;
37411;SDS011;23278;52.110;6.050;2023-07-13T01:12:48;5.55;;;1.85;;
37411;SDS011;23278;52.110;6.050;2023-07-13T01:18:04;2.85;;;0.93;;
37411;SDS011;23278;52.110;6.050;2023-07-13T01:20:32;3.67;;;1.17;;
37411;SDS011;23278;52.110;6.050;2023-07-13T01:23:09;4.50;;;0.98;;
37411;SDS011;23278;52.110;6.050;2023-07-13T01:25:36;4.60;;;1.40;;
37411;SDS011;23278;52.110;6.050;2023-07-13T01:28:03;4.82;;;1.00;;
37411;SDS011;23278;52.110;6.050;2023-07-13T01:30:31;3.78;;;1.63;;
37411;SDS011;23278;52.110;6.050;2023-07-13T01:32:57;3.80;;;1.23;;
37411;SDS011;23278;52.110;6.050;2023-07-13T01:35:25;4.90;;;1.10;;
37411;SDS011;23278;52.110;6.050;2023-07-13T01:37:52;3.38;;;0.98;;
37411;SDS011;23278;52.110;6.050;2023-07-13T01:40:19;6.40;;;1.92;;
37411;SDS011;23278;52.110;6.050;2023-07-13T01:42:46;3.97;;;0.85;;
37411;SDS011;23278;52.110;6.050;2023-07-13T01:45:12;5.20;;;2.17;;
37411;SDS011;23278;52.110;6.050;2023-07-13T01:47:38;4.45;;;1.20;;
37411;SDS011;23278;52.110;6.050;2023-07-13T01:50:04;7.47;;;1.48;;
37411;SDS011;23278;52.110;6.050;2023-07-13T01:52:30;2.97;;;1.13;;
37411;SDS011;23278;52.110;6.050;2023-07-13T01:54:57;6.13;;;1.38;;
37411;SDS011;23278;52.110;6.050;2023-07-13T01:57:23;3.70;;;0.90;;
37411;SDS011;23278;52.110;6.050;2023-07-13T01:59:49;6.18;;;1.27;;
37411;SDS011;23278;52.110;6.050;2023-07-13T02:02:15;6.53;;;1.42;;
37411;SDS011;23278;52.110;6.050;2023-07-13T02:04:41;1.98;;;1.05;;
37411;SDS011;23278;52.110;6.050;2023-07-13T02:07:08;6.85;;;1.23;;
37411;SDS011;23278;52.110;6.050;2023-07-13T02:09:34;4.82;;;1.05;;
37411;SDS011;23278;52.110;6.050;2023-07-13T02:12:00;5.45;;;1.60;;
37411;SDS011;23278;52.110;6.050;2023-07-13T02:16:58;4.47;;;1.40;;
37411;SDS011;23278;52.110;6.050;2023-07-13T02:19:24;4.82;;;1.45;;
37411;SDS011;23278;52.110;6.050;2023-07-13T02:21:49;4.68;;;1.70;;
37411;SDS011;23278;52.110;6.050;2023-07-13T02:24:16;3.95;;;1.10;;
37411;SDS011;23278;52.110;6.050;2023-07-13T02:26:43;4.10;;;1.00;;
37411;SDS011;23278;52.110;6.050;2023-07-13T02:29:09;3.83;;;1.85;;
37411;SDS011;23278;52.110;6.050;2023-07-13T02:31:36;3.45;;;1.20;;
37411;SDS011;23278;52.110;6.050;2023-07-13T02:34:02;7.20;;;2.05;;
37411;SDS011;23278;52.110;6.050;2023-07-13T02:36:29;7.50;;;1.80;;
37411;SDS011;23278;52.110;6.050;2023-07-13T02:38:57;4.20;;;1.13;;
37411;SDS011;23278;52.110;6.050;2023-07-13T02:41:26;3.65;;;1.10;;
37411;SDS011;23278;52.110;6.050;2023-07-13T02:43:52;6.97;;;1.80;;
37411;SDS011;23278;52.110;6.050;2023-07-13T02:46:18;4.53;;;1.35;;
37411;SDS011;23278;52.110;6.050;2023-07-13T02:48:45;5.78;;;1.67;;
37411;SDS011;23278;52.110;6.050;2023-07-13T02:51:12;5.55;;;1.50;;
37411;SDS011;23278;52.110;6.050;2023-07-13T02:53:38;3.83;;;1.10;;
37411;SDS011;23278;52.110;6.050;2023-07-13T02:56:04;5.07;;;1.50;;
37411;SDS011;23278;52.110;6.050;2023-07-13T02:58:31;6.88;;;1.83;;
37411;SDS011;23278;52.110;6.050;2023-07-13T03:00:57;7.38;;;1.95;;
37411;SDS011;23278;52.110;6.050;2023-07-13T03:03:23;6.43;;;1.75;;
37411;SDS011;23278;52.110;6.050;2023-07-13T03:05:57;9.15;;;2.42;;
37411;SDS011;23278;52.110;6.050;2023-07-13T03:08:27;15.15;;;2.38;;
37411;SDS011;23278;52.110;6.050;2023-07-13T03:11:03;5.80;;;2.05;;
37411;SDS011;23278;52.110;6.050;2023-07-13T03:13:33;4.03;;;1.48;;
37411;SDS011;23278;52.110;6.050;2023-07-13T03:16:01;5.90;;;1.40;;
37411;SDS011;23278;52.110;6.050;2023-07-13T03:18:28;8.23;;;1.77;;
37411;SDS011;23278;52.110;6.050;2023-07-13T03:20:56;5.22;;;1.92;;
37411;SDS011;23278;52.110;6.050;2023-07-13T03:23:22;9.20;;;1.85;;
37411;SDS011;23278;52.110;6.050;2023-07-13T03:25:50;10.02;;;1.40;;
37411;SDS011;23278;52.110;6.050;2023-07-13T03:28:27;5.43;;;2.20;;
37411;SDS011;23278;52.110;6.050;2023-07-13T03:31:03;8.48;;;2.00;;
37411;SDS011;23278;52.110;6.050;2023-07-13T03:33:34;8.18;;;2.47;;
37411;SDS011;23278;52.110;6.050;2023-07-13T03:36:01;6.65;;;1.52;;
37411;SDS011;23278;52.110;6.050;2023-07-13T03:38:28;8.10;;;2.78;;
37411;SDS011;23278;52.110;6.050;2023-07-13T03:40:54;5.50;;;2.20;;
37411;SDS011;23278;52.110;6.050;2023-07-13T03:43:21;5.13;;;2.55;;
37411;SDS011;23278;52.110;6.050;2023-07-13T03:45:47;6.53;;;2.03;;
37411;SDS011;23278;52.110;6.050;2023-07-13T03:48:13;6.22;;;2.63;;
37411;SDS011;23278;52.110;6.050;2023-07-13T03:50:40;6.18;;;2.70;;
37411;SDS011;23278;52.110;6.050;2023-07-13T03:53:06;8.60;;;2.35;;
37411;SDS011;23278;52.110;6.050;2023-07-13T03:55:33;6.40;;;2.45;;
37411;SDS011;23278;52.110;6.050;2023-07-13T03:58:00;8.52;;;2.28;;
37411;SDS011;23278;52.110;6.050;2023-07-13T04:00:47;7.60;;;2.13;;
37411;SDS011;23278;52.110;6.050;2023-07-13T04:03:13;14.35;;;2.53;;
37411;SDS011;23278;52.110;6.050;2023-07-13T04:05:38;7.35;;;2.28;;
37411;SDS011;23278;52.110;6.050;2023-07-13T04:08:05;10.93;;;2.22;;
37411;SDS011;23278;52.110;6.050;2023-07-13T04:10:32;11.90;;;2.45;;
37411;SDS011;23278;52.110;6.050;2023-07-13T04:12:58;6.38;;;2.28;;
37411;SDS011;23278;52.110;6.050;2023-07-13T04:15:24;9.70;;;3.22;;
37411;SDS011;23278;52.110;6.050;2023-07-13T04:17:50;7.55;;;2.40;;
37411;SDS011;23278;52.110;6.050;2023-07-13T04:20:16;7.53;;;2.40;;
37411;SDS011;23278;52.110;6.050;2023-07-13T04:22:42;7.03;;;2.75;;
37411;SDS011;23278;52.110;6.050;2023-07-13T04:25:08;6.65;;;2.20;;
37411;SDS011;23278;52.110;6.050;2023-07-13T04:27:34;9.48;;;2.50;;
37411;SDS011;23278;52.110;6.050;2023-07-13T04:30:00;9.60;;;2.90;;
37411;SDS011;23278;52.110;6.050;2023-07-13T04:32:25;9.75;;;2.63;;
37411;SDS011;23278;52.110;6.050;2023-07-13T04:34:51;6.28;;;2.67;;
37411;SDS011;23278;52.110;6.050;2023-07-13T04:37:20;6.53;;;2.13;;
37411;SDS011;23278;52.110;6.050;2023-07-13T04:39:46;9.07;;;2.38;;
37411;SDS011;23278;52.110;6.050;2023-07-13T04:42:12;8.27;;;3.25;;
37411;SDS011;23278;52.110;6.050;2023-07-13T04:44:38;6.60;;;3.45;;
37411;SDS011;23278;52.110;6.050;2023-07-13T04:47:03;9.60;;;3.22;;
37411;SDS011;23278;52.110;6.050;2023-07-13T04:49:29;11.93;;;3.40;;
37411;SDS011;23278;52.110;6.050;2023-07-13T04:51:56;13.00;;;4.07;;
37411;SDS011;23278;52.110;6.050;2023-07-13T04:54:22;10.07;;;2.90;;
37411;SDS011;23278;52.110;6.050;2023-07-13T04:56:47;6.35;;;2.30;;
37411;SDS011;23278;52.110;6.050;2023-07-13T04:59:13;8.93;;;3.42;;
37411;SDS011;23278;52.110;6.050;2023-07-13T05:01:39;8.18;;;3.45;;
37411;SDS011;23278;52.110;6.050;2023-07-13T05:04:06;9.40;;;3.25;;
37411;SDS011;23278;52.110;6.050;2023-07-13T05:06:32;16.63;;;3.47;;
37411;SDS011;23278;52.110;6.050;2023-07-13T05:08:58;14.30;;;3.25;;
37411;SDS011;23278;52.110;6.050;2023-07-13T05:11:24;11.43;;;3.97;;
37411;SDS011;23278;52.110;6.050;2023-07-13T05:13:50;11.63;;;3.92;;
37411;SDS011;23278;52.110;6.050;2023-07-13T05:16:16;10.13;;;3.55;;
37411;SDS011;23278;52.110;6.050;2023-07-13T05:18:42;11.40;;;4.13;;
37411;SDS011;23278;52.110;6.050;2023-07-13T05:21:08;12.88;;;3.90;;
37411;SDS011;23278;52.110;6.050;2023-07-13T05:23:35;8.13;;;4.28;;
37411;SDS011;23278;52.110;6.050;2023-07-13T05:26:02;16.27;;;5.53;;
37411;SDS011;23278;52.110;6.050;2023-07-13T05:28:30;8.27;;;4.38;;
37411;SDS011;23278;52.110;6.050;2023-07-13T05:30:56;14.90;;;5.22;;
37411;SDS011;23278;52.110;6.050;2023-07-13T05:33:23;14.23;;;5.72;;
37411;SDS011;23278;52.110;6.050;2023-07-13T05:35:49;7.68;;;4.03;;
37411;SDS011;23278;52.110;6.050;2023-07-13T05:38:15;15.88;;;5.68;;
37411;SDS011;23278;52.110;6.050;2023-07-13T05:40:45;19.27;;;6.05;;
37411;SDS011;23278;52.110;6.050;2023-07-13T05:43:11;9.38;;;4.07;;
37411;SDS011;23278;52.110;6.050;2023-07-13T05:45:38;17.88;;;5.88;;
37411;SDS011;23278;52.110;6.050;2023-07-13T05:48:04;16.10;;;5.22;;
37411;SDS011;23278;52.110;6.050;2023-07-13T05:50:30;18.88;;;7.57;;
37411;SDS011;23278;52.110;6.050;2023-07-13T05:52:57;12.60;;;6.00;;
37411;SDS011;23278;52.110;6.050;2023-07-13T05:55:22;16.17;;;6.55;;
37411;SDS011;23278;52.110;6.050;2023-07-13T05:57:48;21.48;;;8.82;;
37411;SDS011;23278;52.110;6.050;2023-07-13T06:00:14;11.60;;;7.03;;
37411;SDS011;23278;52.110;6.050;2023-07-13T06:02:41;19.55;;;7.38;;
37411;SDS011;23278;52.110;6.050;2023-07-13T06:05:07;22.27;;;7.53;;
37411;SDS011;23278;52.110;6.050;2023-07-13T06:07:34;15.43;;;7.38;;
37411;SDS011;23278;52.110;6.050;2023-07-13T06:10:00;15.05;;;6.30;;
37411;SDS011;23278;52.110;6.050;2023-07-13T06:12:26;14.23;;;7.00;;
37411;SDS011;23278;52.110;6.050;2023-07-13T06:14:52;14.73;;;6.70;;
37411;SDS011;23278;52.110;6.050;2023-07-13T06:17:18;16.25;;;8.30;;
37411;SDS011;23278;52.110;6.050;2023-07-13T06:19:44;16.75;;;8.30;;
37411;SDS011;23278;52.110;6.050;2023-07-13T06:22:10;19.13;;;9.38;;
37411;SDS011;23278;52.110;6.050;2023-07-13T06:24:36;18.33;;;7.18;;
37411;SDS011;23278;52.110;6.050;2023-07-13T06:27:02;17.08;;;8.05;;
37411;SDS011;23278;52.110;6.050;2023-07-13T06:29:28;16.30;;;8.45;;
37411;SDS011;23278;52.110;6.050;2023-07-13T06:31:54;14.90;;;7.53;;
37411;SDS011;23278;52.110;6.050;2023-07-13T06:34:20;20.42;;;8.45;;
37411;SDS011;23278;52.110;6.050;2023-07-13T06:36:46;21.00;;;8.65;;
37411;SDS011;23278;52.110;6.050;2023-07-13T06:39:12;17.80;;;8.77;;
37411;SDS011;23278;52.110;6.050;2023-07-13T06:41:38;14.98;;;7.60;;
37411;SDS011;23278;52.110;6.050;2023-07-13T06:44:09;11.57;;;6.38;;
37411;SDS011;23278;52.110;6.050;2023-07-13T06:46:35;15.43;;;7.35;;
37411;SDS011;23278;52.110;6.050;2023-07-13T06:49:01;16.75;;;9.55;;
37411;SDS011;23278;52.110;6.050;2023-07-13T06:51:27;15.07;;;7.53;;
37411;SDS011;23278;52.110;6.050;2023-07-13T06:53:52;21.63;;;9.07;;
37411;SDS011;23278;52.110;6.050;2023-07-13T06:56:19;13.75;;;7.95;;
37411;SDS011;23278;52.110;6.050;2023-07-13T06:58:45;15.75;;;8.60;;
37411;SDS011;23278;52.110;6.050;2023-07-13T07:01:11;14.05;;;7.00;;
37411;SDS011;23278;52.110;6.050;2023-07-13T07:03:37;13.80;;;7.85;;
37411;SDS011;23278;52.110;6.050;2023-07-13T07:06:11;15.32;;;7.55;;
37411;SDS011;23278;52.110;6.050;2023-07-13T07:08:40;17.08;;;8.73;;
37411;SDS011;23278;52.110;6.050;2023-07-13T07:11:08;16.40;;;8.68;;
37411;SDS011;23278;52.110;6.050;2023-07-13T07:13:36;13.02;;;7.95;;
37411;SDS011;23278;52.110;6.050;2023-07-13T07:16:02;15.90;;;7.43;;
37411;SDS011;23278;52.110;6.050;2023-07-13T07:18:28;14.38;;;7.85;;
37411;SDS011;23278;52.110;6.050;2023-07-13T07:20:54;15.50;;;7.15;;
37411;SDS011;23278;52.110;6.050;2023-07-13T07:23:21;12.35;;;7.35;;
37411;SDS011;23278;52.110;6.050;2023-07-13T07:25:47;11.70;;;6.97;;
37411;SDS011;23278;52.110;6.050;2023-07-13T07:28:14;10.82;;;6.43;;
37411;SDS011;23278;52.110;6.050;2023-07-13T07:30:44;11.30;;;6.45;;
37411;SDS011;23278;52.110;6.050;2023-07-13T07:33:10;12.40;;;7.45;;
37411;SDS011;23278;52.110;6.050;2023-07-13T07:35:36;9.23;;;5.15;;
37411;SDS011;23278;52.110;6.050;2023-07-13T07:38:02;12.93;;;8.25;;
37411;SDS011;23278;52.110;6.050;2023-07-13T07:40:28;10.13;;;7.70;;
37411;SDS011;23278;52.110;6.050;2023-07-13T07:42:55;14.15;;;7.70;;
37411;SDS011;23278;52.110;6.050;2023-07-13T07:45:21;12.52;;;6.50;;
37411;SDS011;23278;52.110;6.050;2023-07-13T07:47:47;16.73;;;9.55;;
37411;SDS011;23278;52.110;6.050;2023-07-13T07:50:13;12.73;;;7.22;;
37411;SDS011;23278;52.110;6.050;2023-07-13T07:52:39;14.23;;;6.97;;
37411;SDS011;23278;52.110;6.050;2023-07-13T07:55:05;15.93;;;7.70;;
37411;SDS011;23278;52.110;6.050;2023-07-13T07:57:32;15.98;;;8.45;;
37411;SDS011;23278;52.110;6.050;2023-07-13T07:59:58;15.90;;;7.82;;
37411;SDS011;23278;52.110;6.050;2023-07-13T08:02:24;14.30;;;8.20;;
37411;SDS011;23278;52.110;6.050;2023-07-13T08:04:50;12.57;;;6.65;;
37411;SDS011;23278;52.110;6.050;2023-07-13T08:07:17;12.38;;;6.30;;
37411;SDS011;23278;52.110;6.050;2023-07-13T08:09:43;9.15;;;6.20;;
37411;SDS011;23278;52.110;6.050;2023-07-13T08:12:09;11.95;;;7.18;;
37411;SDS011;23278;52.110;6.050;2023-07-13T08:14:35;14.43;;;7.63;;
37411;SDS011;23278;52.110;6.050;2023-07-13T08:17:00;14.55;;;7.90;;
37411;SDS011;23278;52.110;6.050;2023-07-13T08:19:27;14.32;;;7.88;;
37411;SDS011;23278;52.110;6.050;2023-07-13T08:21:53;13.73;;;8.02;;
37411;SDS011;23278;52.110;6.050;2023-07-13T08:24:21;16.27;;;7.85;;
37411;SDS011;23278;52.110;6.050;2023-07-13T08:26:48;17.45;;;7.40;;
37411;SDS011;23278;52.110;6.050;2023-07-13T08:29:15;10.48;;;6.30;;
37411;SDS011;23278;52.110;6.050;2023-07-13T08:31:41;14.18;;;7.22;;
37411;SDS011;23278;52.110;6.050;2023-07-13T08:34:07;20.75;;;6.97;;
37411;SDS011;23278;52.110;6.050;2023-07-13T08:36:33;10.50;;;4.88;;
37411;SDS011;23278;52.110;6.050;2023-07-13T08:38:59;14.50;;;5.78;;
37411;SDS011;23278;52.110;6.050;2023-07-13T08:41:25;11.27;;;4.70;;
37411;SDS011;23278;52.110;6.050;2023-07-13T08:43:51;9.30;;;5.57;;
37411;SDS011;23278;52.110;6.050;2023-07-13T08:46:34;10.70;;;5.20;;
37411;SDS011;23278;52.110;6.050;2023-07-13T08:49:05;9.10;;;4.90;;
37411;SDS011;23278;52.110;6.050;2023-07-13T08:52:41;7.47;;;3.92;;
37411;SDS011;23278;52.110;6.050;2023-07-13T08:54:42;9.10;;;3.50;;
37411;SDS011;23278;52.110;6.050;2023-07-13T08:57:15;7.90;;;3.95;;
37411;SDS011;23278;52.110;6.050;2023-07-13T08:59:43;6.95;;;3.55;;
37411;SDS011;23278;52.110;6.050;2023-07-13T09:05:11;8.18;;;4.15;;
37411;SDS011;23278;52.110;6.050;2023-07-13T09:10:52;9.98;;;5.20;;
37411;SDS011;23278;52.110;6.050;2023-07-13T09:13:28;9.23;;;5.65;;
37411;SDS011;23278;52.110;6.050;2023-07-13T09:16:05;7.35;;;4.53;;
37411;SDS011;23278;52.110;6.050;2023-07-13T09:18:38;14.13;;;6.93;;
37411;SDS011;23278;52.110;6.050;2023-07-13T09:23:42;8.27;;;5.55;;
37411;SDS011;23278;52.110;6.050;2023-07-13T09:26:19;8.15;;;5.40;;
37411;SDS011;23278;52.110;6.050;2023-07-13T09:31:50;10.57;;;5.63;;
37411;SDS011;23278;52.110;6.050;2023-07-13T09:34:20;9.25;;;4.72;;
37411;SDS011;23278;52.110;6.050;2023-07-13T09:36:46;7.65;;;4.63;;
37411;SDS011;23278;52.110;6.050;2023-07-13T09:41:53;10.10;;;4.68;;
37411;SDS011;23278;52.110;6.050;2023-07-13T09:44:55;4.90;;;3.45;;
37411;SDS011;23278;52.110;6.050;2023-07-13T09:47:26;7.82;;;2.90;;
37411;SDS011;23278;52.110;6.050;2023-07-13T09:49:58;5.03;;;1.98;;
37411;SDS011;23278;52.110;6.050;2023-07-13T09:52:25;5.85;;;2.35;;
37411;SDS011;23278;52.110;6.050;2023-07-13T09:54:53;6.50;;;2.28;;
37411;SDS011;23278;52.110;6.050;2023-07-13T09:57:25;4.63;;;1.40;;
37411;SDS011;23278;52.110;6.050;2023-07-13T09:59:54;4.95;;;1.05;;
37411;SDS011;23278;52.110;6.050;2023-07-13T10:02:22;7.30;;;2.13;;
37411;SDS011;23278;52.110;6.050;2023-07-13T10:04:55;4.43;;;1.02;;
37411;SDS011;23278;52.110;6.050;2023-07-13T10:07:23;4.70;;;1.45;;
37411;SDS011;23278;52.110;6.050;2023-07-13T10:09:53;4.15;;;1.92;;
37411;SDS011;23278;52.110;6.050;2023-07-13T10:12:21;2.53;;;1.10;;
37411;SDS011;23278;52.110;6.050;2023-07-13T10:14:50;6.30;;;1.35;;
37411;SDS011;23278;52.110;6.050;2023-07-13T10:17:24;4.70;;;1.52;;
37411;SDS011;23278;52.110;6.050;2023-07-13T10:20:03;2.67;;;0.80;;
37411;SDS011;23278;52.110;6.050;2023-07-13T10:22:37;3.78;;;1.00;;
37411;SDS011;23278;52.110;6.050;2023-07-13T10:25:24;3.88;;;0.90;;
37411;SDS011;23278;52.110;6.050;2023-07-13T10:27:58;3.75;;;1.23;;
37411;SDS011;23278;52.110;6.050;2023-07-13T10:30:38;4.70;;;1.40;;
37411;SDS011;23278;52.110;6.050;2023-07-13T10:33:12;6.22;;;1.50;;
37411;SDS011;23278;52.110;6.050;2023-07-13T10:35:39;3.78;;;1.30;;
37411;SDS011;23278;52.110;6.050;2023-07-13T10:38:10;4.43;;;1.75;;
37411;SDS011;23278;52.110;6.050;2023-07-13T10:43:17;2.97;;;1.35;;
37411;SDS011;23278;52.110;6.050;2023-07-13T10:45:50;6.28;;;1.00;;
37411;SDS011;23278;52.110;6.050;2023-07-13T10:48:16;4.63;;;1.15;;
37411;SDS011;23278;52.110;6.050;2023-07-13T10:50:45;3.47;;;1.02;;
37411;SDS011;23278;52.110;6.050;2023-07-13T10:53:21;9.00;;;1.92;;
37411;SDS011;23278;52.110;6.050;2023-07-13T10:55:56;3.03;;;1.13;;
37411;SDS011;23278;52.110;6.050;2023-07-13T11:01:09;6.18;;;2.15;;
37411;SDS011;23278;52.110;6.050;2023-07-13T11:18:51;6.72;;;2.65;;
37411;SDS011;23278;52.110;6.050;2023-07-13T11:21:19;4.65;;;1.58;;
37411;SDS011;23278;52.110;6.050;2023-07-13T11:23:53;3.17;;;1.58;;
37411;SDS011;23278;52.110;6.050;2023-07-13T11:27:11;3.78;;;1.55;;
37411;SDS011;23278;52.110;6.050;2023-07-13T11:31:57;3.78;;;1.77;;
37411;SDS011;23278;52.110;6.050;2023-07-13T11:36:59;2.95;;;1.45;;
37411;SDS011;23278;52.110;6.050;2023-07-13T11:39:33;3.47;;;1.65;;
37411;SDS011;23278;52.110;6.050;2023-07-13T11:42:04;4.47;;;2.10;;
37411;SDS011;23278;52.110;6.050;2023-07-13T11:44:33;4.13;;;1.80;;
37411;SDS011;23278;52.110;6.050;2023-07-13T11:47:07;4.88;;;1.98;;
37411;SDS011;23278;52.110;6.050;2023-07-13T11:49:41;3.63;;;1.70;;
37411;SDS011;23278;52.110;6.050;2023-07-13T11:52:14;5.15;;;1.73;;
37411;SDS011;23278;52.110;6.050;2023-07-13T11:54:49;4.38;;;2.03;;
37411;SDS011;23278;52.110;6.050;2023-07-13T11:57:25;5.25;;;1.63;;
37411;SDS011;23278;52.110;6.050;2023-07-13T12:00:32;2.10;;;1.27;;
37411;SDS011;23278;52.110;6.050;2023-07-13T12:02:56;4.57;;;1.30;;
37411;SDS011;23278;52.110;6.050;2023-07-13T12:05:24;3.80;;;1.17;;
37411;SDS011;23278;52.110;6.050;2023-07-13T12:07:51;3.42;;;1.38;;
37411;SDS011;23278;52.110;6.050;2023-07-13T12:10:20;3.90;;;1.48;;
37411;SDS011;23278;52.110;6.050;2023-07-13T12:15:22;5.15;;;1.23;;
37411;SDS011;23278;52.110;6.050;2023-07-13T12:17:53;5.18;;;1.52;;
37411;SDS011;23278;52.110;6.050;2023-07-13T12:20:25;3.17;;;1.25;;
37411;SDS011;23278;52.110;6.050;2023-07-13T12:22:55;3.22;;;1.17;;
37411;SDS011;23278;52.110;6.050;2023-07-13T12:25:22;5.03;;;1.50;;
37411;SDS011;23278;52.110;6.050;2023-07-13T12:27:49;4.07;;;1.60;;
37411;SDS011;23278;52.110;6.050;2023-07-13T12:30:28;3.70;;;1.42;;
37411;SDS011;23278;52.110;6.050;2023-07-13T12:33:05;2.75;;;1.42;;
37411;SDS011;23278;52.110;6.050;2023-07-13T12:35:44;3.58;;;1.83;;
37411;SDS011;23278;52.110;6.050;2023-07-13T12:38:17;3.15;;;1.65;;
37411;SDS011;23278;52.110;6.050;2023-07-13T12:40:46;5.95;;;1.98;;
37411;SDS011;23278;52.110;6.050;2023-07-13T12:43:15;4.70;;;1.85;;
37411;SDS011;23278;52.110;6.050;2023-07-13T12:48:23;5.50;;;2.20;;
37411;SDS011;23278;52.110;6.050;2023-07-13T12:50:49;4.53;;;2.05;;
37411;SDS011;23278;52.110;6.050;2023-07-13T12:53:20;5.80;;;1.98;;
37411;SDS011;23278;52.110;6.050;2023-07-13T12:55:55;3.70;;;1.80;;
37411;SDS011;23278;52.110;6.050;2023-07-13T12:58:29;2.97;;;1.60;;
37411;SDS011;23278;52.110;6.050;2023-07-13T13:01:02;3.17;;;1.58;;
37411;SDS011;23278;52.110;6.050;2023-07-13T13:03:44;4.82;;;1.90;;
37411;SDS011;23278;52.110;6.050;2023-07-13T13:08:50;4.20;;;1.63;;
37411;SDS011;23278;52.110;6.050;2023-07-13T13:11:28;2.70;;;1.23;;
37411;SDS011;23278;52.110;6.050;2023-07-13T13:13:56;2.00;;;1.40;;
37411;SDS011;23278;52.110;6.050;2023-07-13T13:16:23;2.92;;;1.38;;
37411;SDS011;23278;52.110;6.050;2023-07-13T13:18:50;5.03;;;1.52;;
37411;SDS011;23278;52.110;6.050;2023-07-13T13:21:17;5.03;;;1.85;;
37411;SDS011;23278;52.110;6.050;2023-07-13T13:23:44;2.83;;;1.40;;
37411;SDS011;23278;52.110;6.050;2023-07-13T13:26:12;4.28;;;2.05;;
37411;SDS011;23278;52.110;6.050;2023-07-13T13:28:41;4.88;;;1.58;;
37411;SDS011;23278;52.110;6.050;2023-07-13T13:31:09;4.10;;;1.35;;
37411;SDS011;23278;52.110;6.050;2023-07-13T13:33:39;3.88;;;1.52;;
37411;SDS011;23278;52.110;6.050;2023-07-13T13:36:17;3.00;;;1.33;;
37411;SDS011;23278;52.110;6.050;2023-07-13T13:38:47;4.22;;;1.40;;
37411;SDS011;23278;52.110;6.050;2023-07-13T13:41:14;2.72;;;1.23;;
37411;SDS011;23278;52.110;6.050;2023-07-13T13:43:41;2.33;;;1.10;;
37411;SDS011;23278;52.110;6.050;2023-07-13T13:46:19;4.80;;;1.48;;
37411;SDS011;23278;52.110;6.050;2023-07-13T13:48:50;3.85;;;1.85;;
37411;SDS011;23278;52.110;6.050;2023-07-13T13:53:44;3.97;;;1.30;;
37411;SDS011;23278;52.110;6.050;2023-07-13T13:56:11;4.32;;;1.50;;
37411;SDS011;23278;52.110;6.050;2023-07-13T13:58:37;2.65;;;0.98;;
37411;SDS011;23278;52.110;6.050;2023-07-13T14:01:04;2.50;;;1.23;;
37411;SDS011;23278;52.110;6.050;2023-07-13T14:03:33;5.53;;;1.25;;
37411;SDS011;23278;52.110;6.050;2023-07-13T14:05:59;3.90;;;1.25;;
37411;SDS011;23278;52.110;6.050;2023-07-13T14:08:26;4.35;;;1.50;;
37411;SDS011;23278;52.110;6.050;2023-07-13T14:10:52;4.25;;;1.30;;
37411;SDS011;23278;52.110;6.050;2023-07-13T14:13:22;7.20;;;1.23;;
37411;SDS011;23278;52.110;6.050;2023-07-13T14:15:55;1.70;;;0.70;;
37411;SDS011;23278;52.110;6.050;2023-07-13T14:18:21;5.20;;;1.48;;
37411;SDS011;23278;52.110;6.050;2023-07-13T14:20:49;2.58;;;1.05;;
37411;SDS011;23278;52.110;6.050;2023-07-13T14:23:17;2.28;;;0.80;;
37411;SDS011;23278;52.110;6.050;2023-07-13T14:25:44;3.63;;;1.35;;
37411;SDS011;23278;52.110;6.050;2023-07-13T14:30:49;2.50;;;1.08;;
37411;SDS011;23278;52.110;6.050;2023-07-13T14:33:15;2.47;;;0.98;;
37411;SDS011;23278;52.110;6.050;2023-07-13T14:35:42;3.70;;;1.17;;
37411;SDS011;23278;52.110;6.050;2023-07-13T14:38:18;2.40;;;1.15;;
37411;SDS011;23278;52.110;6.050;2023-07-13T14:40:45;3.63;;;0.95;;
37411;SDS011;23278;52.110;6.050;2023-07-13T14:43:12;3.35;;;0.95;;
37411;SDS011;23278;52.110;6.050;2023-07-13T14:45:41;3.42;;;0.95;;
37411;SDS011;23278;52.110;6.050;2023-07-13T14:48:16;2.80;;;0.93;;
37411;SDS011;23278;52.110;6.050;2023-07-13T14:50:44;3.50;;;1.05;;
37411;SDS011;23278;52.110;6.050;2023-07-13T14:53:12;3.72;;;0.98;;
37411;SDS011;23278;52.110;6.050;2023-07-13T14:55:38;3.80;;;1.33;;
37411;SDS011;23278;52.110;6.050;2023-07-13T14:58:05;3.53;;;1.00;;
37411;SDS011;23278;52.110;6.050;2023-07-13T15:00:32;1.83;;;0.88;;
37411;SDS011;23278;52.110;6.050;2023-07-13T15:02:59;1.77;;;0.85;;
37411;SDS011;23278;52.110;6.050;2023-07-13T15:05:27;4.38;;;1.02;;
37411;SDS011;23278;52.110;6.050;2023-07-13T15:07:56;3.00;;;0.90;;
37411;SDS011;23278;52.110;6.050;2023-07-13T15:10:25;1.63;;;0.83;;
37411;SDS011;23278;52.110;6.050;2023-07-13T15:15:23;2.50;;;0.80;;
37411;SDS011;23278;52.110;6.050;2023-07-13T15:17:49;4.22;;;1.10;;
37411;SDS011;23278;52.110;6.050;2023-07-13T15:22:50;2.83;;;1.00;;
37411;SDS011;23278;52.110;6.050;2023-07-13T15:25:17;1.90;;;0.85;;
37411;SDS011;23278;52.110;6.050;2023-07-13T15:27:45;3.20;;;1.13;;
37411;SDS011;23278;52.110;6.050;2023-07-13T15:30:11;3.63;;;1.25;;
37411;SDS011;23278;52.110;6.050;2023-07-13T15:32:38;2.67;;;1.15;;
37411;SDS011;23278;52.110;6.050;2023-07-13T15:35:05;2.72;;;1.00;;
37411;SDS011;23278;52.110;6.050;2023-07-13T15:37:38;2.85;;;0.90;;
37411;SDS011;23278;52.110;6.050;2023-07-13T15:40:09;5.78;;;1.45;;
37411;SDS011;23278;52.110;6.050;2023-07-13T15:42:45;1.83;;;0.90;;
37411;SDS011;23278;52.110;6.050;2023-07-13T15:45:22;4.10;;;1.10;;
37411;SDS011;23278;52.110;6.050;2023-07-13T15:47:50;2.30;;;1.10;;
37411;SDS011;23278;52.110;6.050;2023-07-13T15:50:17;4.25;;;1.13;;
37411;SDS011;23278;52.110;6.050;2023-07-13T15:52:47;4.03;;;1.40;;
37411;SDS011;23278;52.110;6.050;2023-07-13T15:55:15;4.15;;;1.23;;
37411;SDS011;23278;52.110;6.050;2023-07-13T15:57:42;2.10;;;0.98;;